Time;durP1;ratioP1;P1;durP2;ratioP2;P2;SDS_P1;SDS_P2;PMS_P1;PMS_P2;Temp;Humidity;BMP_temperature;BMP_pressure;BME280_temperature;BME280_humidity;BME280_pressure;Samples;Min_cycle;Max_cycle;Signal;HPM_P1;HPM_P2
2023/10/01 00:04:46;;;;;;;15.25;9.20;;;;;;;13.65;100.00;102305.56;10481474;28;20029;-74
2023/10/01 00:09:47;;;;;;;18.15;8.70;;;;;;;13.72;100.00;102295.25;10468964;28;20424;-75
2023/10/01 00:14:47;;;;;;;13.88;9.20;;;;;;;13.73;100.00;102282.22;10476660;28;20040;-75
2023/10/01 00:19:48;;;;;;;16.50;8.23;;;;;;;13.70;100.00;102279.94;10485446;28;20036;-75
2023/10/01 00:24:48;;;;;;;19.65;10.05;;;;;;;13.63;100.00;102290.28;10477547;28;20071;-72
2023/10/01 00:29:49;;;;;;;16.35;8.43;;;;;;;13.60;100.00;102294.38;10485310;28;20131;-75
2023/10/01 00:34:50;;;;;;;18.58;8.55;;;;;;;13.53;100.00;102286.19;10478790;28;20041;-75
2023/10/01 00:39:56;;;;;;;20.80;10.65;;;;;;;13.58;100.00;102301.22;10480178;28;20029;-75
2023/10/01 00:44:57;;;;;;;20.00;9.18;;;;;;;13.57;100.00;102292.09;10466840;28;20095;-75
2023/10/01 00:49:58;;;;;;;19.77;9.73;;;;;;;13.56;100.00;102272.94;10482031;28;20048;-74
2023/10/01 00:54:59;;;;;;;24.67;9.77;;;;;;;13.50;100.00;102281.16;10476942;28;20037;-75
2023/10/01 00:59:59;;;;;;;18.55;9.70;;;;;;;13.37;100.00;102267.53;10481161;28;20028;-75
2023/10/01 01:05:19;;;;;;;23.75;10.48;;;;;;;13.38;100.00;102260.94;10480107;28;20064;-75
2023/10/01 01:10:20;;;;;;;20.25;9.02;;;;;;;13.30;100.00;102275.09;10476695;28;20064;-75
2023/10/01 01:15:21;;;;;;;19.30;10.27;;;;;;;13.30;100.00;102275.09;10466678;28;20037;-75
2023/10/01 01:20:22;;;;;;;22.80;9.93;;;;;;;13.29;100.00;102262.34;10477611;28;20037;-75
2023/10/01 01:25:26;;;;;;;28.33;10.73;;;;;;;13.34;100.00;102270.78;10479433;28;20061;-75
2023/10/01 01:30:29;;;;;;;18.05;11.02;;;;;;;13.36;100.00;102252.03;10479548;28;20067;-75
2023/10/01 01:35:29;;;;;;;19.52;11.02;;;;;;;13.37;100.00;102237.09;10477429;28;20062;-75
2023/10/01 01:40:36;;;;;;;20.92;10.77;;;;;;;13.37;100.00;102233.50;10479930;28;20058;-76
2023/10/01 01:45:38;;;;;;;21.50;10.20;;;;;;;12.64;100.00;102147.91;10477389;28;20087;-76
2023/10/01 01:50:41;;;;;;;19.48;10.63;;;;;;;13.32;100.00;102237.00;10476569;28;20078;-75
2023/10/01 01:55:42;;;;;;;19.48;10.35;;;;;;;13.23;100.00;102244.78;10480299;28;20502;-75
2023/10/01 02:01:01;;;;;;;25.42;10.65;;;;;;;13.05;100.00;102218.03;10471401;28;20037;-75
2023/10/01 02:06:01;;;;;;;24.67;11.60;;;;;;;12.91;100.00;102216.59;10471720;28;20043;-74
2023/10/01 02:11:09;;;;;;;21.58;10.57;;;;;;;12.81;100.00;102227.38;10475805;28;20071;-74
2023/10/01 02:21:43;;;;;;;21.48;10.82;;;;;;;12.77;100.00;102238.03;10474967;28;20074;-75
2023/10/01 02:26:46;;;;;;;25.08;12.00;;;;;;;12.78;100.00;102223.16;10480843;28;20037;-74
2023/10/01 02:31:55;;;;;;;26.67;11.60;;;;;;;12.80;100.00;102232.06;10461903;28;20032;-75
2023/10/01 02:36:55;;;;;;;19.67;11.63;;;;;;;12.85;100.00;102223.06;10473106;28;20064;-75
2023/10/01 02:47:25;;;;;;;28.77;13.48;;;;;;;12.89;100.00;102202.16;10472728;28;20059;-75
2023/10/01 02:52:36;;;;;;;22.90;11.88;;;;;;;13.00;100.00;102212.41;10464984;28;20060;-75
2023/10/01 02:57:40;;;;;;;24.08;12.23;;;;;;;13.06;100.00;102207.81;10477150;28;20040;-75
2023/10/01 03:02:42;;;;;;;27.52;12.93;;;;;;;12.32;100.00;102092.97;10478898;28;20560;-74
2023/10/01 03:07:45;;;;;;;27.60;13.18;;;;;;;13.11;100.00;102200.50;10487693;28;20037;-75
2023/10/01 03:12:49;;;;;;;26.75;13.07;;;;;;;13.15;100.00;102200.88;10479924;28;20048;-74
2023/10/01 03:17:57;;;;;;;22.58;11.90;;;;;;;12.95;100.00;102150.63;10472177;28;20037;-75
2023/10/01 03:23:01;;;;;;;22.17;11.50;;;;;;;13.20;100.00;102178.03;10483515;28;20499;-75
2023/10/01 03:28:03;;;;;;;22.02;12.40;;;;;;;13.23;100.00;102174.78;10480247;28;20040;-75
2023/10/01 03:33:08;;;;;;;18.40;11.80;;;;;;;13.26;100.00;102179.84;10487321;28;20036;-75
2023/10/01 03:38:14;;;;;;;28.10;12.75;;;;;;;13.29;100.00;102180.25;10480323;28;20041;-75
2023/10/01 03:43:18;;;;;;;21.42;11.52;;;;;;;13.32;100.00;102181.66;10478832;28;20437;-74
2023/10/01 03:48:19;;;;;;;20.90;11.45;;;;;;;13.37;100.00;102169.88;10486122;28;20041;-74
2023/10/01 03:53:19;;;;;;;19.98;12.38;;;;;;;13.38;100.00;102177.94;10477797;28;20040;-75
2023/10/01 03:58:25;;;;;;;18.05;11.55;;;;;;;13.41;100.00;102160.84;10485976;28;20037;-74
2023/10/01 04:03:36;;;;;;;18.15;10.90;;;;;;;13.16;100.00;102111.28;10470617;28;20612;-75
2023/10/01 04:08:44;;;;;;;19.13;11.57;;;;;;;13.23;100.00;102108.41;10471627;28;20033;-74
2023/10/01 04:14:07;;;;;;;20.85;11.40;;;;;;;13.48;100.00;102144.97;10468253;28;20067;-76
2023/10/01 04:19:11;;;;;;;19.17;11.73;;;;;;;13.52;100.00;102150.88;10478557;28;20041;-74
2023/10/01 04:24:13;;;;;;;25.80;12.40;;;;;;;13.58;100.00;102160.09;10482015;28;20051;-74
2023/10/01 04:29:16;;;;;;;19.08;11.10;;;;;;;13.62;100.00;102167.69;10479666;28;20057;-75
2023/10/01 04:34:18;;;;;;;21.80;10.82;;;;;;;13.65;100.00;102171.91;10483388;28;20515;-74
2023/10/01 04:39:19;;;;;;;20.00;11.43;;;;;;;13.62;100.00;102148.34;10477268;28;20048;-75
2023/10/01 04:44:22;;;;;;;22.60;10.90;;;;;;;13.72;100.00;102144.91;10481096;28;20052;-75
2023/10/01 04:49:39;;;;;;;19.60;11.60;;;;;;;13.77;100.00;102135.91;10470499;28;20286;-75
2023/10/01 04:54:49;;;;;;;21.40;10.73;;;;;;;13.76;100.00;102135.03;10479833;28;20045;-66
2023/10/01 04:59:59;;;;;;;17.95;10.18;;;;;;;13.79;100.00;102131.78;10479533;28;20105;-75
2023/10/01 05:05:09;;;;;;;18.58;10.00;;;;;;;13.83;100.00;102135.75;10479626;28;20064;-76
2023/10/01 05:10:09;;;;;;;18.33;10.23;;;;;;;13.83;100.00;102152.38;10479178;28;20370;-75
2023/10/01 05:15:17;;;;;;;14.55;8.75;;;;;;;13.84;100.00;102148.50;10477937;28;20037;-75
2023/10/01 05:20:19;;;;;;;19.00;11.30;;;;;;;13.86;100.00;102140.78;10474883;28;20044;-77
2023/10/01 05:25:24;;;;;;;30.48;11.10;;;;;;;13.86;100.00;102134.41;10476914;28;20044;-75
2023/10/01 05:30:42;;;;;;;20.33;9.77;;;;;;;13.90;100.00;102147.50;10480409;28;20053;-74
2023/10/01 05:35:47;;;;;;;17.88;11.15;;;;;;;13.96;100.00;102150.41;10473392;28;20033;-74
2023/10/01 05:40:52;;;;;;;16.95;8.90;;;;;;;13.97;100.00;102152.06;10467420;28;20086;-75
2023/10/01 05:45:53;;;;;;;21.27;9.60;;;;;;;13.97;100.00;102150.13;10466008;28;20045;-75
2023/10/01 05:50:57;;;;;;;18.23;9.93;;;;;;;13.96;100.00;102164.25;10458077;28;20041;-74
2023/10/01 05:56:07;;;;;;;19.30;9.75;;;;;;;13.91;100.00;102160.28;10472474;28;20061;-75
2023/10/01 06:01:14;;;;;;;19.73;9.80;;;;;;;13.95;100.00;102170.84;10465870;28;20041;-75
2023/10/01 06:06:14;;;;;;;;;;;;;;;13.95;100.00;102173.63;10464928;28;20053;-75
2023/10/01 06:11:17;;;;;;;19.73;9.73;;;;;;;13.95;100.00;102193.00;10474178;28;19945;-75
2023/10/01 06:16:24;;;;;;;15.30;8.68;;;;;;;13.81;100.00;102187.75;10465974;28;20404;-75
2023/10/01 06:21:31;;;;;;;19.83;9.77;;;;;;;13.79;100.00;102201.00;10463518;28;20137;-76
2023/10/01 06:26:42;;;;;;;21.95;10.63;;;;;;;13.69;100.00;102179.47;10462134;28;20036;-76
2023/10/01 06:31:52;;;;;;;19.38;10.00;;;;;;;13.63;100.00;102182.38;10464516;28;20044;-76
2023/10/01 06:36:58;;;;;;;20.48;9.63;;;;;;;13.66;100.00;102181.88;10482535;28;20040;-76
2023/10/01 06:47:26;;;;;;;25.17;10.73;;;;;;;13.72;100.00;102162.38;10467773;28;20055;-77
2023/10/01 06:52:27;;;;;;;23.30;10.70;;;;;;;13.82;100.00;102167.28;10484862;28;20052;-78
2023/10/01 06:57:28;;;;;;;22.60;10.23;;;;;;;13.89;100.00;102159.69;10463935;28;20040;-77
2023/10/01 07:02:28;;;;;;;21.25;10.60;;;;;;;13.92;100.00;102150.88;10481697;28;20051;-78
2023/10/01 07:07:29;;;;;;;20.23;9.82;;;;;;;14.02;100.00;102161.31;10483966;28;20059;-78
2023/10/01 07:12:31;;;;;;;22.67;9.60;;;;;;;14.12;100.00;102166.25;10481012;28;20067;-79
2023/10/01 07:17:35;;;;;;;18.15;8.55;;;;;;;14.31;100.00;102162.16;10486368;28;20095;-78
2023/10/01 07:22:38;;;;;;;18.85;8.77;;;;;;;14.37;100.00;102171.44;10471583;28;20124;-78
2023/10/01 07:27:42;;;;;;;20.48;8.93;;;;;;;14.45;100.00;102170.16;10485129;28;20033;-79
2023/10/01 07:32:42;;;;;;;16.60;8.23;;;;;;;14.45;100.00;102171.03;10470643;28;20062;-77
2023/10/01 07:37:43;;;;;;;19.23;8.98;;;;;;;14.47;100.00;102173.53;10478682;28;20087;-79
2023/10/01 07:42:46;;;;;;;18.80;8.90;;;;;;;14.48;100.00;102164.97;10486154;28;20037;-78
2023/10/01 07:47:50;;;;;;;17.92;9.27;;;;;;;14.57;100.00;102165.44;10477917;28;20060;-77
2023/10/01 07:53:03;;;;;;;18.63;9.20;;;;;;;14.66;100.00;102154.78;10466106;28;20037;-75
2023/10/01 07:58:22;;;;;;;20.67;8.38;;;;;;;14.68;100.00;102156.22;10472611;28;20116;-77
2023/10/01 08:08:47;;;;;;;21.95;9.30;;;;;;;14.75;100.00;102174.63;10482632;28;20048;-78
2023/10/01 08:13:46;;;;;;;20.40;7.90;;;;;;;14.82;100.00;102175.28;10479957;28;20044;-79
2023/10/01 08:18:47;;;;;;;19.58;8.27;;;;;;;14.82;100.00;102166.97;10468870;28;20056;-78
2023/10/01 08:23:54;;;;;;;22.45;9.05;;;;;;;14.80;100.00;102175.56;10453935;28;20041;-78
2023/10/01 08:28:58;;;;;;;20.65;9.35;;;;;;;14.85;100.00;102166.47;10452063;28;20104;-75
2023/10/01 08:34:22;;;;;;;17.33;7.95;;;;;;;15.00;100.00;102166.72;10448683;28;20055;-76
2023/10/01 08:39:33;;;;;;;17.63;8.73;;;;;;;15.12;100.00;102158.31;10456879;28;20025;-76
2023/10/01 08:44:47;;;;;;;17.67;8.40;;;;;;;15.16;100.00;102153.09;10453032;28;20056;-72
2023/10/01 08:49:52;;;;;;;19.33;8.00;;;;;;;15.14;100.00;102151.41;10451489;28;20038;-76
2023/10/01 08:54:55;;;;;;;19.17;8.75;;;;;;;15.20;100.00;102160.66;10448534;28;20042;-75
2023/10/01 08:59:59;;;;;;;20.27;8.32;;;;;;;15.42;100.00;102146.84;10442994;28;20037;-75
2023/10/01 09:05:07;;;;;;;13.80;7.50;;;;;;;15.53;100.00;102137.53;10455100;28;20045;-77
2023/10/01 09:10:17;;;;;;;19.25;8.85;;;;;;;15.74;100.00;102144.22;10446471;28;20037;-76
2023/10/01 09:15:27;;;;;;;13.90;7.80;;;;;;;16.08;100.00;102146.88;10442437;28;20052;-77
2023/10/01 09:20:42;;;;;;;14.75;7.70;;;;;;;16.27;100.00;102135.41;10450756;28;20072;-76
2023/10/01 09:25:42;;;;;;;17.05;7.53;;;;;;;16.20;100.00;102135.59;10450694;28;20051;-75
2023/10/01 09:31:03;;;;;;;19.75;8.38;;;;;;;16.40;100.00;102137.75;10447057;28;20076;-77
2023/10/01 09:36:04;;;;;;;14.95;6.50;;;;;;;16.81;100.00;102118.69;10441870;28;20048;-76
2023/10/01 09:41:19;;;;;;;17.30;7.32;;;;;;;17.07;100.00;102122.47;10443564;28;20037;-76
2023/10/01 09:46:20;;;;;;;16.02;6.97;;;;;;;17.42;100.00;102123.81;10430921;28;20036;-78
2023/10/01 09:51:21;;;;;;;15.50;6.78;;;;;;;17.66;100.00;102142.88;10445100;28;20049;-78
2023/10/01 09:56:26;;;;;;;19.88;6.35;;;;;;;17.71;100.00;102137.31;10451207;28;20040;-75
2023/10/01 10:01:33;;;;;;;11.43;5.97;;;;;;;17.87;100.00;102125.16;10473012;28;20152;-75
2023/10/01 10:06:34;;;;;;;17.20;7.05;;;;;;;17.91;100.00;102115.16;10462250;28;20433;-77
2023/10/01 10:11:45;;;;;;;15.60;6.38;;;;;;;18.02;100.00;102124.38;10474669;28;20041;-76
2023/10/01 10:16:56;;;;;;;14.27;6.63;;;;;;;18.25;100.00;102124.97;10465788;28;20037;-75
2023/10/01 10:27:03;;;;;;;15.07;5.80;;;;;;;18.84;100.00;102115.31;10451555;28;20047;-76
2023/10/01 10:32:09;;;;;;;16.88;5.45;;;;;;;19.61;100.00;102112.31;10437943;28;20073;-76
2023/10/01 10:37:10;;;;;;;16.02;6.60;;;;;;;20.11;100.00;102105.69;10447964;28;20033;-76
2023/10/01 10:42:31;;;;;;;14.05;5.82;;;;;;;20.67;100.00;102084.00;10429527;28;20064;-76
2023/10/01 10:47:58;;;;;;;14.30;5.25;;;;;;;20.46;100.00;102097.31;10470678;28;20045;-76
2023/10/01 10:52:59;;;;;;;14.00;5.97;;;;;;;20.61;100.00;102091.66;10462836;28;20366;-72
2023/10/01 10:58:11;;;;;;;9.98;5.47;;;;;;;20.86;100.00;102084.16;10479800;28;20037;-78
2023/10/01 11:03:12;;;;;;;13.15;5.72;;;;;;;20.69;100.00;102085.41;10454188;28;20452;-74
2023/10/01 11:08:25;;;;;;;15.95;5.53;;;;;;;20.33;100.00;102096.84;10451913;28;20045;-76
2023/10/01 11:13:38;;;;;;;16.92;7.15;;;;;;;20.17;100.00;102086.91;10471158;28;20053;-75
2023/10/01 11:18:41;;;;;;;19.48;7.65;;;;;;;20.16;100.00;102096.41;10458968;28;20041;-75
2023/10/01 11:23:41;;;;;;;13.75;6.20;;;;;;;20.19;100.00;102107.00;10459986;28;20041;-76
2023/10/01 11:28:42;;;;;;;15.52;6.45;;;;;;;20.30;100.00;102097.44;10484236;28;20083;-77
2023/10/01 11:33:47;;;;;;;14.77;5.07;;;;;;;20.42;100.00;102088.66;10466775;28;20412;-76
2023/10/01 11:38:50;;;;;;;11.15;5.53;;;;;;;20.49;100.00;102079.97;10485767;28;20041;-74
2023/10/01 11:44:00;;;;;;;13.48;5.55;;;;;;;20.67;100.00;102084.00;10479259;28;20115;-76
2023/10/01 11:49:07;;;;;;;12.60;5.63;;;;;;;20.80;100.00;102071.34;10479802;28;20041;-75
2023/10/01 11:54:12;;;;;;;12.57;5.78;;;;;;;20.66;100.00;102082.38;10484579;28;20052;-74
2023/10/01 11:59:20;;;;;;;16.10;6.68;;;;;;;20.47;100.00;102080.25;10472846;28;20386;-75
2023/10/01 12:04:24;;;;;;;17.00;6.18;;;;;;;20.39;100.00;102085.63;10469841;28;20048;-73
2023/10/01 12:09:25;;;;;;;12.45;6.13;;;;;;;20.50;100.00;102078.81;10463518;28;20385;-75
2023/10/01 12:14:26;;;;;;;15.27;6.60;;;;;;;20.64;100.00;102062.22;10477813;28;20048;-75
2023/10/01 12:19:27;;;;;;;13.85;5.80;;;;;;;20.48;100.00;102051.13;10484203;28;20040;-74
2023/10/01 12:24:28;;;;;;;13.55;5.53;;;;;;;20.41;100.00;102047.03;10474897;28;20037;-76
2023/10/01 12:29:42;;;;;;;13.05;5.47;;;;;;;20.36;100.00;102053.47;10478833;28;20430;-75
2023/10/01 12:34:43;;;;;;;11.70;5.00;;;;;;;20.50;100.00;102057.28;10473600;28;20373;-76
2023/10/01 12:39:44;;;;;;;14.02;5.45;;;;;;;20.71;100.00;102060.78;10463078;28;20044;-75
2023/10/01 12:44:45;;;;;;;16.48;6.13;;;;;;;20.86;100.00;102042.16;10466132;28;20037;-76
2023/10/01 12:49:58;;;;;;;13.60;6.28;;;;;;;21.06;100.00;102041.09;10481167;28;20056;-76
2023/10/01 12:55:01;;;;;;;13.98;5.95;;;;;;;21.21;100.00;102032.53;10464540;28;20112;-74
2023/10/01 13:05:21;;;;;;;14.00;6.05;;;;;;;22.13;100.00;102030.44;10452619;28;20658;-75
2023/10/01 13:10:34;;;;;;;11.85;6.25;;;;;;;22.41;100.00;102025.78;10442549;28;20033;-75
2023/10/01 13:15:37;;;;;;;12.77;4.78;;;;;;;22.55;100.00;102008.97;10453159;28;20541;-76
2023/10/01 13:20:58;;;;;;;12.23;5.30;;;;;;;22.44;100.00;102013.13;10449616;28;20105;-76
2023/10/01 13:36:51;;;;;;;16.30;5.97;;;;;;;21.49;100.00;102004.75;10468076;28;20042;-73
2023/10/01 14:08:43;;;;;;;13.70;5.85;;;;;;;21.10;100.00;101997.38;10479857;28;20041;-72
2023/10/01 14:13:43;;;;;;;18.27;6.20;;;;;;;21.07;100.00;101987.59;10462327;28;20051;-75
2023/10/01 14:18:53;;;;;;;14.32;6.18;;;;;;;21.13;100.00;101978.00;10475529;28;20040;-76
2023/10/01 14:24:21;;;;;;;13.75;6.25;;;;;;;21.29;100.00;101977.78;10475060;28;20040;-76
2023/10/01 14:29:24;;;;;;;21.30;8.00;;;;;;;21.28;100.00;101967.75;10473150;28;20041;-75
2023/10/01 14:34:24;;;;;;;16.30;6.57;;;;;;;21.32;100.00;101955.63;10480117;28;20087;-75
2023/10/01 14:39:30;;;;;;;14.27;6.60;;;;;;;21.32;100.00;101950.03;10463482;28;20040;-74
2023/10/01 14:44:30;;;;;;;17.58;7.15;;;;;;;21.46;100.00;101946.53;10475510;28;20063;-77
2023/10/01 14:49:35;;;;;;;13.82;6.05;;;;;;;21.75;100.00;101946.38;10470694;28;20179;-76
2023/10/01 14:54:37;;;;;;;14.45;6.43;;;;;;;21.94;100.00;101932.31;10478407;28;20045;-76
2023/10/01 14:59:38;;;;;;;17.63;9.15;;;;;;;21.89;100.00;101947.25;10483184;28;20068;-76
2023/10/01 15:04:39;;;;;;;15.82;7.75;;;;;;;21.73;100.00;101948.63;10485730;28;20032;-75
2023/10/01 15:09:41;;;;;;;13.18;5.90;;;;;;;21.59;100.00;101942.13;10459973;28;20052;-75
2023/10/01 15:14:43;;;;;;;16.85;6.50;;;;;;;21.49;100.00;101954.31;10480499;28;20490;-75
2023/10/01 15:19:46;;;;;;;18.40;6.18;;;;;;;21.43;100.00;101967.56;10485304;28;20039;-75
2023/10/01 15:24:48;;;;;;;17.25;6.78;;;;;;;21.51;100.00;101958.47;10483018;28;20044;-75
2023/10/01 15:29:52;;;;;;;17.05;7.30;;;;;;;21.56;100.00;101950.00;10476081;28;20038;-76
2023/10/01 15:34:56;;;;;;;13.88;6.03;;;;;;;21.35;100.00;101940.19;10481851;28;20048;-76
2023/10/01 15:40:00;;;;;;;15.15;7.50;;;;;;;21.30;100.00;101962.66;10479323;28;20400;-76
2023/10/01 15:45:15;;;;;;;16.42;6.93;;;;;;;21.11;100.00;101966.28;10477727;28;20503;-75
2023/10/01 15:50:25;;;;;;;13.93;6.25;;;;;;;20.89;100.00;101957.59;10482852;28;20041;-75
2023/10/01 15:55:31;;;;;;;9.98;5.10;;;;;;;20.67;100.00;101961.75;10459190;28;20032;-75
2023/10/01 16:00:34;;;;;;;12.40;5.90;;;;;;;20.48;100.00;101958.00;10462080;28;20041;-75
2023/10/01 16:05:42;;;;;;;15.73;5.65;;;;;;;20.37;100.00;101951.69;10459195;28;20037;-76
2023/10/01 16:10:43;;;;;;;10.90;5.75;;;;;;;20.22;100.00;101955.47;10455128;28;20095;-76
2023/10/01 16:15:49;;;;;;;16.50;6.70;;;;;;;19.81;100.00;101927.84;10465611;28;20052;-76
2023/10/01 16:20:49;;;;;;;14.77;5.95;;;;;;;19.92;100.00;101960.16;10472154;28;20036;-76
2023/10/01 16:25:50;;;;;;;12.73;5.47;;;;;;;19.77;100.00;101960.28;10459348;28;20037;-75
2023/10/01 16:31:02;;;;;;;13.50;5.40;;;;;;;19.59;100.00;101964.56;10480246;28;20045;-76
2023/10/01 16:36:02;;;;;;;12.35;5.95;;;;;;;19.51;100.00;101973.53;10475678;28;20032;-75
2023/10/01 16:41:04;;;;;;;15.25;6.47;;;;;;;19.31;100.00;101971.72;10476032;28;20104;-76
2023/10/01 16:46:04;;;;;;;11.77;5.57;;;;;;;19.26;100.00;101978.13;10477495;28;20048;-75
2023/10/01 16:56:21;;;;;;;11.48;5.18;;;;;;;18.96;100.00;101984.69;10461927;28;20464;-75
2023/10/01 17:01:25;;;;;;;16.13;6.38;;;;;;;18.88;100.00;101988.06;10478794;28;20040;-76
2023/10/01 17:06:27;;;;;;;16.98;6.95;;;;;;;18.81;100.00;101987.50;10477847;28;20045;-74
2023/10/01 17:11:29;;;;;;;14.15;5.70;;;;;;;18.73;100.00;101992.53;10480262;28;20052;-75
2023/10/01 17:16:31;;;;;;;12.82;6.28;;;;;;;18.68;100.00;101995.31;10467168;28;20105;-75
2023/10/01 17:21:38;;;;;;;13.27;6.25;;;;;;;18.62;100.00;101996.44;10463152;28;20036;-75
2023/10/01 17:26:48;;;;;;;15.43;6.28;;;;;;;18.57;100.00;101999.25;10462888;28;20044;-75
2023/10/01 17:32:04;;;;;;;12.40;6.15;;;;;;;18.53;100.00;101998.13;10456403;28;20052;-76
2023/10/01 17:37:08;;;;;;;15.38;6.28;;;;;;;18.48;100.00;101995.34;10457787;28;20043;-75
2023/10/01 17:42:14;;;;;;;12.27;6.43;;;;;;;18.45;100.00;101995.91;10467481;28;20072;-74
2023/10/01 17:47:19;;;;;;;14.30;6.00;;;;;;;18.38;100.00;101992.59;10467944;28;20094;-74
2023/10/01 17:52:22;;;;;;;13.82;6.70;;;;;;;18.22;100.00;101984.22;10467929;28;20131;-75
2023/10/01 17:57:26;;;;;;;15.52;7.43;;;;;;;18.09;100.00;101993.16;10473925;28;20101;-75
2023/10/01 18:02:31;;;;;;;16.02;7.50;;;;;;;17.95;100.00;101996.47;10479471;28;20052;-75
2023/10/01 18:07:34;;;;;;;22.70;11.95;;;;;;;17.90;100.00;101996.47;10476963;28;20060;-75
2023/10/01 18:12:43;;;;;;;21.73;10.07;;;;;;;17.89;100.00;102003.13;10481193;28;20052;-74
2023/10/01 18:17:47;;;;;;;17.40;9.35;;;;;;;17.86;100.00;102000.06;10476536;28;20037;-74
2023/10/01 18:22:54;;;;;;;17.67;8.48;;;;;;;17.88;100.00;102014.56;10478842;28;20052;-74
2023/10/01 18:27:55;;;;;;;20.25;7.88;;;;;;;17.59;100.00;101978.84;10471122;28;20074;-74
2023/10/01 18:32:55;;;;;;;16.58;8.15;;;;;;;17.82;100.00;102019.28;10486683;28;20036;-75
2023/10/01 18:37:56;;;;;;;16.92;8.13;;;;;;;17.83;100.00;102011.78;10484523;28;20048;-74
2023/10/01 18:42:59;;;;;;;15.70;8.65;;;;;;;17.76;100.00;102014.81;10473955;28;20040;-75
2023/10/01 18:48:00;;;;;;;19.10;8.13;;;;;;;17.79;100.00;102016.19;10474702;28;20064;-75
2023/10/01 18:53:00;;;;;;;19.42;8.52;;;;;;;17.75;100.00;102013.94;10465847;28;20108;-75
2023/10/01 18:58:03;;;;;;;22.88;8.93;;;;;;;17.77;100.00;102015.63;10485305;28;20032;-75
2023/10/01 19:03:05;;;;;;;18.38;8.40;;;;;;;17.76;100.00;102014.81;10471473;28;20435;-74
2023/10/01 19:08:06;;;;;;;19.67;9.52;;;;;;;17.77;100.00;102019.25;10473625;28;20046;-73
2023/10/01 19:13:07;;;;;;;19.40;8.20;;;;;;;17.79;100.00;102016.19;10474787;28;20496;-73
2023/10/01 19:18:10;;;;;;;25.88;10.45;;;;;;;17.78;100.00;102015.34;10478258;28;20131;-74
2023/10/01 19:23:11;;;;;;;20.92;9.18;;;;;;;17.88;100.00;102015.41;10471953;28;20045;-74
2023/10/01 19:28:14;;;;;;;17.00;7.78;;;;;;;17.90;100.00;102007.63;10461149;28;20060;-73
2023/10/01 19:33:14;;;;;;;22.38;9.15;;;;;;;17.89;100.00;102014.28;10471483;28;20032;-74
2023/10/01 19:38:15;;;;;;;19.98;8.20;;;;;;;17.88;100.00;102009.84;10483033;28;20032;-74
2023/10/01 19:43:16;;;;;;;19.33;8.48;;;;;;;17.87;100.00;102010.13;10486864;28;20055;-74
2023/10/01 19:48:19;;;;;;;18.92;9.93;;;;;;;17.86;100.00;102009.28;10481946;28;20104;-74
2023/10/01 19:53:25;;;;;;;16.70;7.13;;;;;;;17.79;100.00;101991.13;10478203;28;20060;-74
2023/10/01 19:58:32;;;;;;;18.60;7.10;;;;;;;17.70;100.00;101986.09;10465561;28;20048;-74
2023/10/01 20:03:33;;;;;;;13.90;7.45;;;;;;;17.65;100.00;101993.59;10477152;28;20075;-74
2023/10/01 20:08:37;;;;;;;15.75;7.28;;;;;;;17.68;100.00;101995.84;10483048;28;20334;-74
2023/10/01 20:13:39;;;;;;;17.33;7.78;;;;;;;17.58;100.00;101976.31;10484559;28;20045;-74
2023/10/01 20:18:39;;;;;;;16.02;8.85;;;;;;;17.59;100.00;101980.75;10479419;28;20104;-74
2023/10/01 20:23:40;;;;;;;23.92;9.10;;;;;;;17.58;100.00;101981.88;10483682;28;20045;-74
2023/10/01 20:28:40;;;;;;;23.38;8.88;;;;;;;17.55;100.00;101981.34;10490101;28;20047;-73
2023/10/01 20:33:41;;;;;;;15.85;7.32;;;;;;;17.53;100.00;101980.75;10464816;28;20465;-74
2023/10/01 20:38:49;;;;;;;16.15;7.63;;;;;;;17.53;100.00;101966.03;10474487;28;20505;-73
2023/10/01 20:43:55;;;;;;;18.20;9.75;;;;;;;17.51;100.00;101955.16;10481382;28;20101;-74
2023/10/01 20:49:02;;;;;;;18.42;7.82;;;;;;;17.45;100.00;101956.25;10474754;28;20071;-74
2023/10/01 20:54:04;;;;;;;24.05;8.27;;;;;;;17.49;100.00;101962.09;10484247;28;20041;-74
2023/10/01 20:59:15;;;;;;;18.42;9.52;;;;;;;17.37;100.00;101942.88;10476253;28;20410;-73
2023/10/01 21:04:24;;;;;;;16.60;8.23;;;;;;;17.43;100.00;101952.06;10462647;28;20040;-73
2023/10/01 21:09:26;;;;;;;20.40;9.05;;;;;;;17.42;100.00;101956.78;10452070;28;20045;-74
2023/10/01 21:14:32;;;;;;;19.02;9.18;;;;;;;17.31;100.00;101943.97;10462919;28;20045;-74
2023/10/01 21:19:41;;;;;;;20.70;8.07;;;;;;;17.37;100.00;101954.00;10478064;28;20075;-74
2023/10/01 21:24:43;;;;;;;18.52;8.85;;;;;;;17.28;100.00;101925.00;10464082;28;20519;-74
2023/10/01 21:29:44;;;;;;;22.38;9.55;;;;;;;17.32;100.00;101952.03;10462018;28;20041;-74
2023/10/01 21:34:47;;;;;;;21.33;9.07;;;;;;;17.30;100.00;101961.75;10464166;28;20102;-73
2023/10/01 21:39:49;;;;;;;19.40;8.48;;;;;;;17.29;100.00;101962.88;10460733;28;20045;-74
2023/10/01 21:44:51;;;;;;;22.75;9.05;;;;;;;17.28;100.00;101969.53;10474237;28;20096;-73
2023/10/01 21:49:53;;;;;;;23.48;9.43;;;;;;;17.27;100.00;101960.34;10476729;28;20044;-74
2023/10/01 21:54:53;;;;;;;22.65;10.20;;;;;;;17.26;100.00;101963.41;10474384;28;20571;-74
2023/10/01 21:59:56;;;;;;;18.80;8.00;;;;;;;17.24;100.00;101971.19;10479692;28;20036;-74
2023/10/01 22:04:56;;;;;;;17.45;7.80;;;;;;;17.22;100.00;101968.69;10479694;28;20041;-74
2023/10/01 22:10:05;;;;;;;20.98;8.80;;;;;;;17.22;100.00;101965.06;10477617;28;20033;-74
2023/10/01 22:15:15;;;;;;;26.73;9.70;;;;;;;17.19;100.00;101971.19;10467590;28;20037;-74
2023/10/01 22:20:31;;;;;;;20.95;8.63;;;;;;;17.15;100.00;101960.59;10484028;28;20067;-73
2023/10/01 22:25:32;;;;;;;21.50;8.65;;;;;;;17.13;100.00;101960.00;10477801;28;20041;-73
2023/10/01 22:30:33;;;;;;;24.50;9.32;;;;;;;17.10;100.00;101956.97;10479781;28;20036;-73
2023/10/01 22:35:33;;;;;;;20.02;8.98;;;;;;;17.10;100.00;101959.75;10476917;28;20058;-73
2023/10/01 22:40:47;;;;;;;21.20;9.43;;;;;;;17.08;100.00;101950.84;10478375;28;20040;-74
2023/10/01 22:45:54;;;;;;;17.10;7.75;;;;;;;17.09;100.00;101953.31;10477717;28;20037;-73
2023/10/01 22:51:02;;;;;;;19.05;8.27;;;;;;;17.07;100.00;101958.31;10477795;28;20072;-74
2023/10/01 22:56:05;;;;;;;18.92;9.10;;;;;;;17.03;100.00;101943.31;10484159;28;20037;-74
2023/10/01 23:01:05;;;;;;;19.75;8.88;;;;;;;17.01;100.00;101939.97;10475820;28;20096;-73
2023/10/01 23:06:06;;;;;;;19.20;9.82;;;;;;;17.02;100.00;101941.63;10477874;28;20059;-73
2023/10/01 23:11:07;;;;;;;18.95;9.27;;;;;;;17.02;100.00;101947.19;10470536;28;20059;-73
2023/10/01 23:16:16;;;;;;;22.75;9.88;;;;;;;17.00;100.00;101943.84;10479857;28;20044;-72
2023/10/01 23:21:18;;;;;;;20.98;11.32;;;;;;;16.90;100.00;101935.44;10486466;28;20075;-74
2023/10/01 23:26:27;;;;;;;23.90;9.93;;;;;;;16.92;100.00;101944.34;10462797;28;20040;-73
2023/10/01 23:31:27;;;;;;;29.08;10.60;;;;;;;16.92;100.00;101947.13;10479731;28;20052;-74
2023/10/01 23:36:37;;;;;;;21.67;10.43;;;;;;;16.89;100.00;101947.69;10485200;28;20439;-73
2023/10/01 23:41:51;;;;;;;27.08;10.57;;;;;;;16.87;100.00;101955.47;10481483;28;20040;-74
2023/10/01 23:46:53;;;;;;;19.20;9.48;;;;;;;16.84;100.00;101947.66;10487142;28;20119;-73
2023/10/01 23:51:55;;;;;;;22.73;10.82;;;;;;;16.73;100.00;101932.84;10476029;28;20042;-74
2023/10/01 23:56:55;;;;;;;21.73;10.18;;;;;;;16.76;100.00;101937.84;10473031;28;20032;-73
